Time;durP1;ratioP1;P1;durP2;ratioP2;P2;SDS_P1;SDS_P2;PMS_P1;PMS_P2;Temp;Humidity;BMP_temperature;BMP_pressure;BME280_temperature;BME280_humidity;BME280_pressure;Samples;Min_cycle;Max_cycle;Signal;HPM_P1;HPM_P2
2021/08/27 00:00:35;194358.00;0.65;336.21;16710.00;0.06;29.57;;;;;19.60;1.00;;;;;;2284736;60;2021;-88
2021/08/27 00:03:04;171751.00;0.57;297.28;0.00;0.00;0.62;;;;;19.20;1.00;;;;;;2284807;60;1027;-88
2021/08/27 00:05:31;180629.00;0.60;312.57;0.00;0.00;0.62;;;;;19.10;1.00;;;;;;2284767;60;1292;-88
2021/08/27 00:08:00;46455.00;0.15;81.05;0.00;0.00;0.62;;;;;19.10;1.00;;;;;;2284736;60;1062;-88
2021/08/27 00:10:29;221286.00;0.74;382.56;0.00;0.00;0.62;;;;;18.70;1.00;;;;;;2284745;60;947;-88
2021/08/27 00:12:56;242034.00;0.81;418.25;47761.00;0.16;83.31;;;;;18.70;1.00;;;;;;2284760;60;1058;-88
2021/08/27 00:15:23;141467.00;0.47;245.10;0.00;0.00;0.62;;;;;18.50;1.00;;;;;;2284736;60;1376;-88
2021/08/27 00:17:52;91928.00;0.31;159.64;0.00;0.00;0.62;;;;;18.90;1.00;;;;;;2284692;60;1604;-88
2021/08/27 00:20:19;131684.00;0.44;228.23;0.00;0.00;0.62;;;;;19.10;1.00;;;;;;2284663;60;1923;-88
2021/08/27 00:22:46;174339.00;0.58;301.74;0.00;0.00;0.62;;;;;19.10;1.00;;;;;;2284737;60;1153;-87
2021/08/27 00:25:14;114455.00;0.38;198.52;0.00;0.00;0.62;;;;;19.30;1.00;;;;;;2284680;60;1399;-87
2021/08/27 00:27:41;48130.00;0.16;83.95;0.00;0.00;0.62;;;;;19.40;1.00;;;;;;2284707;60;1111;-88
2021/08/27 00:30:09;48339.00;0.16;84.31;0.00;0.00;0.62;;;;;19.60;1.00;;;;;;2284669;60;1033;-87
2021/08/27 00:32:37;70890.00;0.24;123.30;0.00;0.00;0.62;;;;;19.70;1.00;;;;;;2284635;60;1603;-88
2021/08/27 00:35:05;312990.00;1.04;540.25;0.00;0.00;0.62;;;;;19.20;1.00;;;;;;2284667;60;1282;-88
2021/08/27 00:37:32;87350.00;0.29;151.73;0.00;0.00;0.62;;;;;19.20;1.00;;;;;;2284582;60;1544;-89
2021/08/27 00:39:59;91985.00;0.31;159.74;0.00;0.00;0.62;;;;;19.20;1.00;;;;;;2284615;60;1984;-88
2021/08/27 00:42:27;237450.00;0.79;410.36;48093.00;0.16;83.89;;;;;19.00;1.00;;;;;;2284653;60;1114;-88
2021/08/27 00:44:55;91048.00;0.30;158.12;0.00;0.00;0.62;;;;;19.30;1.00;;;;;;2284617;60;1307;-88
2021/08/27 00:47:22;113528.00;0.38;196.92;0.00;0.00;0.62;;;;;19.50;1.00;;;;;;2284656;60;1016;-87
2021/08/27 00:49:49;42910.00;0.14;74.92;0.00;0.00;0.62;;;;;19.40;1.00;;;;;;2284646;60;1020;-88
2021/08/27 00:52:17;164142.00;0.55;284.18;30677.00;0.10;53.75;;;;;19.40;1.00;;;;;;2284607;60;1136;-88
2021/08/27 00:54:47;68469.00;0.23;119.11;0.00;0.00;0.62;;;;;19.30;1.00;;;;;;2284584;60;1403;-88
2021/08/27 00:57:15;71613.00;0.24;124.55;0.00;0.00;0.62;;;;;19.60;1.00;;;;;;2284578;60;1089;-88
2021/08/27 00:59:43;40601.00;0.14;70.93;0.00;0.00;0.62;;;;;19.60;1.00;;;;;;2284555;60;1910;-88
2021/08/27 01:02:11;140094.00;0.47;242.73;0.00;0.00;0.62;;;;;19.40;1.00;;;;;;2284587;60;1049;-89
2021/08/27 01:04:39;160718.00;0.54;278.28;20301.00;0.07;35.79;;;;;19.30;1.00;;;;;;2284468;60;1548;-88
2021/08/27 01:07:11;79912.00;0.27;138.89;0.00;0.00;0.62;;;;;19.40;1.00;;;;;;2284463;60;1109;-88
2021/08/27 01:09:44;198400.00;0.66;343.17;38405.00;0.13;67.13;;;;;19.50;1.00;;;;;;2284600;60;951;-88
2021/08/27 01:12:16;99637.00;0.33;172.95;0.00;0.00;0.62;;;;;19.30;1.00;;;;;;2284486;60;1616;-88
2021/08/27 01:14:53;75288.00;0.25;130.90;0.00;0.00;0.62;;;;;19.40;1.00;;;;;;2284515;60;1379;-88
2021/08/27 01:17:27;76299.00;0.25;132.64;0.00;0.00;0.62;;;;;19.50;1.00;;;;;;2284539;60;1066;-87
2021/08/27 01:20:34;320982.00;1.07;553.99;53428.00;0.18;93.11;;;;;19.10;1.00;;;;;;2284456;60;1990;-88
2021/08/27 01:23:42;52469.00;0.17;91.46;0.00;0.00;0.62;;;;;19.10;1.00;;;;;;2284526;60;1075;-88
2021/08/27 01:26:14;360599.00;1.20;622.08;0.00;0.00;0.62;;;;;19.00;1.00;;;;;;2278798;60;1153;-88
2021/08/27 01:28:48;78984.00;0.26;137.28;0.00;0.00;0.62;;;;;19.30;1.00;;;;;;2284498;60;1114;-88
2021/08/27 01:31:29;339716.00;1.13;586.19;86070.00;0.29;149.52;;;;;19.20;1.00;;;;;;2284499;60;1218;-87
2021/08/27 01:34:02;178875.00;0.60;309.55;10810.00;0.04;19.35;;;;;19.60;1.00;;;;;;2284487;60;1460;-88
2021/08/27 01:36:40;298868.00;1.00;515.97;44199.00;0.15;77.15;;;;;19.50;1.00;;;;;;2284490;60;1173;-89
2021/08/27 01:39:11;81460.00;0.27;141.56;0.00;0.00;0.62;;;;;19.70;1.00;;;;;;2284475;60;1983;-88
2021/08/27 01:41:45;205867.00;0.69;356.02;17225.00;0.06;30.46;;;;;19.90;1.00;;;;;;2284477;60;943;-88
2021/08/27 01:44:14;158671.00;0.53;274.75;0.00;0.00;0.62;;;;;20.00;1.00;;;;;;2284489;60;1341;-88
2021/08/27 01:46:47;157973.00;0.53;273.55;0.00;0.00;0.62;;;;;20.00;1.00;;;;;;2284443;60;1106;-89
2021/08/27 01:49:26;409970.00;1.37;706.95;45104.00;0.15;78.72;;;;;20.00;1.00;;;;;;2284295;60;1519;-87
2021/08/27 01:51:56;99299.00;0.33;172.36;0.00;0.00;0.62;;;;;20.10;1.00;;;;;;2284452;60;1108;-88
2021/08/27 01:54:24;118381.00;0.39;205.29;0.00;0.00;0.62;;;;;20.00;1.00;;;;;;2284367;60;1307;-88
2021/08/27 01:59:47;100871.00;0.34;175.08;0.00;0.00;0.62;;;;;19.90;1.00;;;;;;2284160;60;1988;-87
2021/08/27 02:02:17;101482.00;0.34;176.13;0.00;0.00;0.62;;;;;20.20;1.00;;;;;;2284306;60;1151;-88
2021/08/27 02:04:56;76951.00;0.26;133.77;0.00;0.00;0.62;;;;;20.50;1.00;;;;;;2284417;60;1437;-88
2021/08/27 02:07:26;339875.00;1.13;586.46;36395.00;0.12;63.65;;;;;20.40;1.00;;;;;;2284362;60;1099;-87
2021/08/27 02:09:58;81970.00;0.27;142.44;0.00;0.00;0.62;;;;;20.30;1.00;;;;;;2284401;60;1054;-87
2021/08/27 02:12:26;133303.00;0.44;231.02;0.00;0.00;0.62;;;;;20.20;1.00;;;;;;2284230;60;1609;-88
2021/08/27 02:14:59;82154.00;0.27;142.76;0.00;0.00;0.62;;;;;20.20;1.00;;;;;;2284374;60;1261;-88
2021/08/27 02:17:30;154153.00;0.51;266.96;0.00;0.00;0.62;;;;;19.90;1.00;;;;;;2284356;60;1082;-88
2021/08/27 02:19:58;111192.00;0.37;192.89;0.00;0.00;0.62;;;;;20.00;1.00;;;;;;2284832;60;2009;-88
2021/08/27 02:22:31;90565.00;0.30;157.28;0.00;0.00;0.62;;;;;20.30;1.00;;;;;;2285116;60;1102;-88
2021/08/27 02:25:07;239542.00;0.80;413.96;0.00;0.00;0.62;;;;;20.40;1.00;;;;;;2284951;60;1568;-88
2021/08/27 02:27:40;148196.00;0.49;256.70;0.00;0.00;0.62;;;;;20.20;1.00;;;;;;2285114;60;1016;-88
2021/08/27 02:30:09;13019.00;0.04;23.18;0.00;0.00;0.62;;;;;20.00;1.00;;;;;;2285003;60;948;-88
2021/08/27 02:32:38;113146.00;0.38;196.26;0.00;0.00;0.62;;;;;19.90;1.00;;;;;;2285053;60;1013;-88
2021/08/27 02:35:07;211773.00;0.71;366.19;43856.00;0.15;76.56;;;;;19.90;1.00;;;;;;2284980;60;1412;-88
2021/08/27 02:37:39;152633.00;0.51;264.35;0.00;0.00;0.62;;;;;19.90;1.00;;;;;;2285010;60;1113;-88
2021/08/27 02:40:08;100088.00;0.33;173.72;0.00;0.00;0.62;;;;;20.10;1.00;;;;;;2284952;60;1993;-88
2021/08/27 02:42:35;350021.00;1.17;603.90;0.00;0.00;0.62;;;;;20.10;1.00;;;;;;2285066;60;1146;-88
2021/08/27 02:45:05;185531.00;0.62;321.01;18465.00;0.06;32.61;;;;;20.20;1.00;;;;;;2284990;60;1390;-88
2021/08/27 02:47:32;28998.00;0.10;50.85;0.00;0.00;0.62;;;;;20.40;1.00;;;;;;2284945;60;997;-88
2021/08/27 02:50:00;81006.00;0.27;140.77;0.00;0.00;0.62;;;;;20.00;1.00;;;;;;2284999;60;1075;-88
2021/08/27 02:52:32;123603.00;0.41;214.30;0.00;0.00;0.62;;;;;20.00;1.00;;;;;;2284779;60;1155;-87
2021/08/27 02:55:05;158545.00;0.53;274.53;23320.00;0.08;41.02;;;;;20.10;1.00;;;;;;2284704;60;1354;-87
2021/08/27 02:57:40;86343.00;0.29;149.99;0.00;0.00;0.62;;;;;20.20;1.00;;;;;;2284944;60;1008;-88
2021/08/27 03:00:09;96331.00;0.32;167.24;0.00;0.00;0.62;;;;;20.30;1.00;;;;;;2284900;60;1915;-87
2021/08/27 03:02:36;208949.00;0.70;361.33;51374.00;0.17;89.56;;;;;20.20;1.00;;;;;;2284952;60;1075;-87
2021/08/27 03:05:09;78062.00;0.26;135.69;0.00;0.00;0.62;;;;;20.00;1.00;;;;;;2284884;60;1253;-88
2021/08/27 03:07:42;54742.00;0.18;95.39;0.00;0.00;0.62;;;;;20.30;1.00;;;;;;2284972;60;1133;-88
2021/08/27 03:10:15;153837.00;0.51;266.42;0.00;0.00;0.62;;;;;20.40;1.00;;;;;;2284961;60;1099;-88
2021/08/27 03:12:51;67335.00;0.22;117.16;0.00;0.00;0.62;;;;;20.20;1.00;;;;;;2284843;60;1031;-88
2021/08/27 03:15:27;299522.00;1.00;517.10;0.00;0.00;0.62;;;;;20.40;1.00;;;;;;2284952;60;1326;-88
2021/08/27 03:17:56;232831.00;0.78;402.42;0.00;0.00;0.62;;;;;20.20;1.00;;;;;;2284708;60;1075;-88
2021/08/27 03:20:27;303563.00;1.01;524.04;102616.00;0.34;178.09;;;;;19.90;1.00;;;;;;2284874;60;1915;-87
2021/08/27 03:23:02;99517.00;0.33;172.74;0.00;0.00;0.62;;;;;20.00;1.00;;;;;;2284923;60;1078;-88
2021/08/27 03:25:33;156328.00;0.52;270.71;0.00;0.00;0.62;;;;;20.20;1.00;;;;;;2284835;60;1645;-88
2021/08/27 03:28:06;51433.00;0.17;89.66;0.00;0.00;0.62;;;;;20.10;1.00;;;;;;2284849;60;1373;-88
2021/08/27 03:30:35;298563.00;1.00;515.45;35585.00;0.12;62.25;;;;;20.30;1.00;;;;;;2284514;60;1126;-88
2021/08/27 03:33:04;189961.00;0.63;328.64;25901.00;0.09;45.49;;;;;20.10;1.00;;;;;;2284876;60;1047;-88
2021/08/27 03:35:33;85737.00;0.29;148.95;0.00;0.00;0.62;;;;;20.10;1.00;;;;;;2284824;60;1380;-88
2021/08/27 03:38:01;46416.00;0.15;80.99;0.00;0.00;0.62;;;;;20.20;1.00;;;;;;2284872;60;1118;-89
2021/08/27 03:40:31;50269.00;0.17;87.65;0.00;0.00;0.62;;;;;20.20;1.00;;;;;;2284776;60;2002;-89
2021/08/27 03:43:01;231676.00;0.77;400.43;37491.00;0.12;65.55;;;;;19.60;1.00;;;;;;2284835;60;1092;-88
2021/08/27 03:45:31;221938.00;0.74;383.68;0.00;0.00;0.62;;;;;19.50;1.00;;;;;;2281037;60;1376;-89
2021/08/27 03:48:00;84672.00;0.28;147.11;0.00;0.00;0.62;;;;;19.60;1.00;;;;;;2284742;60;1018;-88
2021/08/27 03:50:28;134656.00;0.45;233.36;0.00;0.00;0.62;;;;;19.70;1.00;;;;;;2284659;60;914;-89
2021/08/27 03:52:58;359580.00;1.20;620.33;34844.00;0.12;60.97;;;;;19.90;1.00;;;;;;2280174;61;984;-89
2021/08/27 03:55:26;424065.00;1.41;731.18;67935.00;0.23;118.19;;;;;20.00;1.00;;;;;;2280127;61;1737;-91
2021/08/27 03:57:58;206310.00;0.69;356.78;0.00;0.00;0.62;;;;;20.30;1.00;;;;;;2280268;61;986;-91
2021/08/27 04:00:27;286985.00;0.96;495.55;8843.00;0.03;15.94;;;;;20.40;1.00;;;;;;2267981;61;2007;-91
2021/08/27 04:02:54;398333.00;1.33;686.94;96754.00;0.32;167.97;;;;;20.50;1.00;;;;;;2263978;61;978;-91
2021/08/27 04:13:10;568821.00;1.90;980.41;0.00;0.00;0.62;;;;;20.20;1.00;;;;;;2286621;61;1175;-91
2021/08/27 04:15:37;195256.00;0.65;337.76;0.00;0.00;0.62;;;;;19.60;1.00;;;;;;2280845;60;1479;-91
2021/08/27 04:18:04;423106.00;1.41;729.53;53179.00;0.18;92.68;;;;;19.60;1.00;;;;;;2277691;61;1014;-93
2021/08/27 04:20:31;264173.00;0.88;456.32;0.00;0.00;0.62;;;;;19.60;1.00;;;;;;2284723;61;1910;-91
2021/08/27 04:22:58;287397.00;0.96;496.25;0.00;0.00;0.62;;;;;19.80;1.00;;;;;;2284716;61;1022;-91
2021/08/27 04:25:25;254530.00;0.85;439.74;0.00;0.00;0.62;;;;;19.60;1.00;;;;;;2284626;61;1432;-91
2021/08/27 04:27:52;375715.00;1.25;648.06;0.00;0.00;0.62;;;;;19.40;1.00;;;;;;2284798;61;1014;-91
2021/08/27 04:30:20;130996.00;0.44;227.05;0.00;0.00;0.62;;;;;19.40;1.00;;;;;;2284702;61;1040;-92
2021/08/27 04:32:48;289837.00;0.97;500.45;43184.00;0.14;75.40;;;;;19.60;1.00;;;;;;2284673;61;1032;-92
2021/08/27 04:35:15;263251.00;0.88;454.74;43143.00;0.14;75.33;;;;;19.60;1.00;;;;;;2284645;61;1380;-92
2021/08/27 04:37:41;253904.00;0.85;438.67;0.00;0.00;0.62;;;;;19.90;1.00;;;;;;2284697;61;1005;-91
2021/08/27 04:40:09;233520.00;0.78;403.60;0.00;0.00;0.62;;;;;20.10;1.00;;;;;;2279963;61;1982;-90
2021/08/27 04:42:37;183285.00;0.61;317.15;0.00;0.00;0.62;;;;;20.10;1.00;;;;;;2273177;61;1013;-92
2021/08/27 04:45:04;247542.00;0.83;427.72;0.00;0.00;0.62;;;;;20.10;1.00;;;;;;2280094;61;1347;-91
2021/08/27 04:47:32;237885.00;0.79;411.11;0.00;0.00;0.62;;;;;20.30;1.00;;;;;;2279992;61;971;-90
2021/08/27 04:50:00;354970.00;1.18;612.40;42147.00;0.14;73.60;;;;;20.30;1.00;;;;;;2280094;61;1017;-92
2021/08/27 04:52:27;217104.00;0.72;375.36;0.00;0.00;0.62;;;;;20.60;1.00;;;;;;2267897;61;1060;-92
2021/08/27 05:44:00;937276.00;3.12;1621.69;44717.00;0.15;78.05;;;;;18.80;1.00;;;;;;2293999;60;1403;-91
2021/08/27 05:46:27;264712.00;0.88;457.25;0.00;0.00;0.62;;;;;18.70;1.00;;;;;;2283961;61;1055;-91
2021/08/27 05:48:54;42508.00;0.14;74.23;0.00;0.00;0.62;;;;;19.30;1.00;;;;;;2275669;61;1105;-92
2021/08/27 05:51:21;99864.00;0.33;173.34;0.00;0.00;0.62;;;;;19.80;1.00;;;;;;2275855;61;942;-91
2021/08/27 05:53:48;150293.00;0.50;260.31;0.00;0.00;0.62;;;;;20.20;1.00;;;;;;2276305;61;1421;-91
2021/08/27 05:56:15;258639.00;0.86;446.81;0.00;0.00;0.62;;;;;19.80;1.00;;;;;;2276633;61;1048;-92
2021/08/27 05:58:43;118577.00;0.40;205.63;0.00;0.00;0.62;;;;;19.30;1.00;;;;;;2268375;61;1038;-92
2021/08/27 06:01:15;134821.00;0.45;233.64;0.00;0.00;0.62;;;;;18.90;1.00;;;;;;2268406;61;1992;-90
2021/08/27 06:03:42;309163.00;1.03;533.67;0.00;0.00;0.62;;;;;18.60;1.00;;;;;;2269517;61;1273;-91
2021/08/27 06:06:09;257134.00;0.86;444.22;0.00;0.00;0.62;;;;;18.60;1.00;;;;;;2277792;60;1177;-91
2021/08/27 06:08:36;159951.00;0.53;276.95;0.00;0.00;0.62;;;;;18.50;1.00;;;;;;2284573;60;975;-90
2021/08/27 06:11:03;156345.00;0.52;270.74;0.00;0.00;0.62;;;;;18.60;1.00;;;;;;2272286;61;1088;-90
2021/08/27 06:13:30;110082.00;0.37;190.97;0.00;0.00;0.62;;;;;18.40;1.00;;;;;;2272244;61;1361;-90
2021/08/27 06:15:57;174459.00;0.58;301.95;0.00;0.00;0.62;;;;;18.50;1.00;;;;;;2273499;61;940;-89
2021/08/27 06:18:25;94939.00;0.32;164.84;0.00;0.00;0.62;;;;;18.40;1.00;;;;;;2270438;61;1002;-91
2021/08/27 06:20:52;594592.00;1.98;1024.88;140286.00;0.47;243.06;;;;;18.20;1.00;;;;;;2280494;61;1935;-90
2021/08/27 06:23:22;334860.00;1.12;577.84;75177.00;0.25;130.71;;;;;18.60;1.00;;;;;;2280404;61;1065;-90
2021/08/27 06:25:49;374281.00;1.25;645.60;39037.00;0.13;68.22;;;;;18.80;1.00;;;;;;2280291;61;1038;-87
2021/08/27 06:28:17;109949.00;0.37;190.74;0.00;0.00;0.62;;;;;19.30;1.00;;;;;;2282186;60;1013;-90
2021/08/27 06:30:44;60008.00;0.20;104.49;0.00;0.00;0.62;;;;;19.70;1.00;;;;;;2293340;60;1257;-92
2021/08/27 06:33:11;284946.00;0.95;492.04;0.00;0.00;0.62;;;;;19.60;1.00;;;;;;2293326;60;1021;-90
2021/08/27 06:35:39;231015.00;0.77;399.29;0.00;0.00;0.62;;;;;19.70;1.00;;;;;;2293289;60;1278;-93
2021/08/27 06:38:25;246249.00;0.82;425.50;0.00;0.00;0.62;;;;;20.00;1.00;;;;;;2293271;60;1640;-90
2021/08/27 06:40:55;67626.00;0.23;117.66;0.00;0.00;0.62;;;;;20.10;1.00;;;;;;2293217;60;2007;-90
2021/08/27 06:43:22;113089.00;0.38;196.16;0.00;0.00;0.62;;;;;20.10;1.00;;;;;;2293217;60;1133;-92
2021/08/27 06:45:49;185320.00;0.62;320.65;0.00;0.00;0.62;;;;;20.20;1.00;;;;;;2292407;60;1619;-89
2021/08/27 06:48:16;151567.00;0.51;262.51;7550.00;0.03;13.70;;;;;20.50;1.00;;;;;;2293285;60;953;-91
2021/08/27 06:50:47;206312.00;0.69;356.79;0.00;0.00;0.62;;;;;20.70;1.00;;;;;;2293227;60;910;-88
2021/08/27 06:53:16;138211.00;0.46;239.49;0.00;0.00;0.62;;;;;21.00;1.00;;;;;;2293236;60;1531;-92
2021/08/27 06:55:43;328879.00;1.10;567.56;46340.00;0.15;80.86;;;;;20.80;1.00;;;;;;2293149;60;1320;-89
2021/08/27 06:58:10;500811.00;1.67;863.22;25936.00;0.09;45.55;;;;;20.50;1.00;;;;;;2293161;60;1765;-88
2021/08/27 07:00:40;506940.00;1.69;873.77;42603.00;0.14;74.39;;;;;20.50;1.00;;;;;;2293104;60;1914;-91
2021/08/27 07:03:07;207776.00;0.69;359.31;0.00;0.00;0.62;;;;;20.70;1.00;;;;;;2293247;60;1799;-89
2021/08/27 07:05:37;305938.00;1.02;528.13;65153.00;0.22;113.38;;;;;20.90;1.00;;;;;;2292698;60;1691;-85
2021/08/27 07:40:15;676133.00;2.25;1165.87;79876.00;0.27;138.82;;;;;22.30;1.00;;;;;;2298469;60;1216;-91
2021/08/27 07:42:42;204792.00;0.68;354.17;73018.00;0.24;126.98;;;;;22.50;1.00;;;;;;2297422;60;1998;-89
2021/08/27 07:45:11;207467.00;0.69;358.78;84831.00;0.28;147.38;;;;;22.50;1.00;;;;;;2288394;60;1304;-87
2021/08/27 07:47:38;159406.00;0.53;276.02;72917.00;0.24;126.80;;;;;23.00;1.00;;;;;;2288611;60;1031;-87
2021/08/27 07:50:09;375711.00;1.25;648.05;69034.00;0.23;120.09;;;;;23.30;1.00;;;;;;2288332;60;1046;-87
2021/08/27 07:52:37;333226.00;1.11;575.03;77394.00;0.26;134.54;;;;;23.50;1.00;;;;;;2281301;60;1105;-87
2021/08/27 07:55:04;418192.00;1.39;721.08;181949.00;0.61;314.85;;;;;23.60;1.00;;;;;;2288103;60;1476;-88
2021/08/27 07:57:33;118182328.00;393.94;66864248.00;73672.00;0.25;128.11;;;;;23.70;1.00;;;;;;2288328;60;1200;-87
2021/08/27 08:00:00;339362.00;1.13;585.58;93355.00;0.31;162.10;;;;;23.30;1.00;;;;;;2288584;60;952;-88
2021/08/27 08:02:27;289933.00;0.97;500.61;92724.00;0.31;161.01;;;;;23.20;1.00;;;;;;2289926;60;1938;-87
2021/08/27 08:04:54;291139.00;0.97;502.69;72263.00;0.24;125.67;;;;;22.50;1.00;;;;;;2297364;60;1468;-91
2021/08/27 08:07:21;441622.00;1.47;761.37;111671.00;0.37;193.71;;;;;22.40;1.00;;;;;;2297424;60;1037;-89
2021/08/27 08:09:48;336890.00;1.12;581.33;97853.00;0.33;169.87;;;;;22.10;1.00;;;;;;2297011;60;1665;-88
2021/08/27 08:12:15;361428.00;1.20;623.50;143572.00;0.48;248.73;;;;;22.50;1.00;;;;;;2297223;60;989;-88
2021/08/27 08:14:44;397993.00;1.33;686.35;85199.00;0.28;148.02;;;;;22.80;1.00;;;;;;2297286;60;1398;-91
2021/08/27 08:17:10;612914.00;2.04;1056.52;169014.00;0.56;292.57;;;;;23.10;1.00;;;;;;2296986;60;1720;-87
2021/08/27 08:19:38;280683.00;0.94;484.71;80551.00;0.27;139.99;;;;;23.20;1.00;;;;;;2296676;60;1519;-86
2021/08/27 08:22:11;230222.00;0.77;397.93;79586.00;0.27;138.32;;;;;23.00;1.00;;;;;;2296311;60;1943;-87
2021/08/27 08:24:38;365582.00;1.22;630.64;77956.00;0.26;135.51;;;;;23.10;1.00;;;;;;2296901;60;1686;-90
2021/08/27 08:27:06;219057.00;0.73;378.72;73780.00;0.25;128.29;;;;;23.00;1.00;;;;;;2296984;60;1045;-89
2021/08/27 08:29:37;307326.00;1.02;530.51;76649.00;0.26;133.25;;;;;22.40;1.00;;;;;;2297256;60;1073;-91
2021/08/27 08:32:07;405070.00;1.35;698.52;106237.00;0.35;184.34;;;;;22.40;1.00;;;;;;2297265;60;1756;-89
2021/08/27 08:34:34;384516.00;1.28;663.19;75058.00;0.25;130.50;;;;;22.90;1.00;;;;;;2297198;60;1987;-88
2021/08/27 08:37:01;488790.00;1.63;842.53;191323.00;0.64;330.99;;;;;23.10;1.00;;;;;;2296893;60;1759;-87
2021/08/27 08:39:28;181624.00;0.61;314.29;73137.00;0.24;127.18;;;;;23.10;1.00;;;;;;2296900;60;1079;-86
2021/08/27 08:41:55;358627.00;1.20;618.69;83901.00;0.28;145.78;;;;;23.10;1.00;;;;;;2296824;60;1923;-87
2021/08/27 08:44:22;272676.00;0.91;470.95;69622.00;0.23;121.11;;;;;23.10;1.00;;;;;;2296847;60;1341;-87
2021/08/27 08:54:32;1452727.00;4.84;2554.48;144738.00;0.48;250.74;;;;;23.70;1.00;;;;;;2284477;61;1418;-85
2021/08/27 08:57:00;738930.00;2.46;1274.82;77671.00;0.26;135.01;;;;;23.90;1.00;;;;;;2282852;61;1175;-86
2021/08/27 08:59:29;908369.00;3.03;1570.82;187511.00;0.63;324.42;;;;;24.30;1.00;;;;;;2275157;61;1113;-85
2021/08/27 09:01:56;630904.00;2.10;1087.61;78145.00;0.26;135.83;;;;;24.90;1.00;;;;;;2274873;61;2000;-85
2021/08/27 09:04:24;650555.00;2.17;1121.60;151193.00;0.50;261.86;;;;;25.20;1.00;;;;;;2262223;61;1252;-85
2021/08/27 09:06:52;688845.00;2.30;1187.90;91485.00;0.30;158.87;;;;;25.10;1.00;;;;;;2262881;61;1208;-85
2021/08/27 09:09:33;1323360.00;4.41;2314.92;122120.00;0.41;211.74;;;;;24.70;1.00;;;;;;2261253;61;1123;-85
2021/08/27 09:12:01;579787.00;1.93;999.33;21146.00;0.07;37.25;;;;;24.90;1.00;;;;;;2247411;61;1088;-85
2021/08/27 09:14:29;820163.00;2.73;1416.31;40423.00;0.13;70.62;;;;;25.10;1.00;;;;;;2249073;61;1313;-85
2021/08/27 09:17:06;883282.00;2.94;1526.78;48827.00;0.16;85.16;;;;;25.10;1.00;;;;;;2244818;61;1218;-85
2021/08/27 09:19:52;765419.00;2.55;1320.88;62889.00;0.21;109.47;;;;;25.10;1.00;;;;;;2259568;61;1131;-88
2021/08/27 09:22:20;1192304.00;3.97;2076.31;229949.00;0.77;397.46;;;;;24.70;1.00;;;;;;2257996;61;1996;-86
2021/08/27 09:25:05;1134263.00;3.78;1971.81;82382.00;0.27;143.15;;;;;23.70;1.00;;;;;;2265338;61;1376;-88
2021/08/27 09:27:35;744906.00;2.48;1285.20;14766.00;0.05;26.21;;;;;23.70;1.00;;;;;;2267820;61;1058;-89
2021/08/27 09:30:02;31449.00;0.10;55.09;0.00;0.00;0.62;;;;;23.80;1.00;;;;;;2260377;61;995;-86
2021/08/27 09:32:32;190718.00;0.64;329.94;84539.00;0.28;146.88;;;;;24.30;1.00;;;;;;2265367;61;995;-86
2021/08/27 09:35:08;810258.00;2.70;1399.02;192373.00;0.64;332.79;;;;;24.20;1.00;;;;;;2257516;61;1409;-87
2021/08/27 09:37:37;246068.00;0.82;425.19;74295.00;0.25;129.18;;;;;24.40;1.00;;;;;;2265377;61;1165;-85
2021/08/27 09:40:07;252998.00;0.84;437.11;74964.00;0.25;130.34;;;;;24.50;1.00;;;;;;2268206;61;1098;-85
2021/08/27 09:42:39;393059.00;1.31;677.87;106305.00;0.35;184.45;;;;;24.10;1.00;;;;;;2274297;61;1927;-85
2021/08/27 09:45:07;482021.00;1.61;830.88;82356.00;0.27;143.11;;;;;23.70;1.00;;;;;;2272297;61;1407;-85
2021/08/27 09:47:34;312732.00;1.04;539.81;94721.00;0.32;164.46;;;;;23.30;1.00;;;;;;2272807;61;1089;-84
2021/08/27 09:50:20;184716.00;0.62;319.61;63513.00;0.21;110.55;;;;;23.10;1.00;;;;;;2264334;61;1193;-85
2021/08/27 09:52:53;874429.00;2.91;1511.25;130758.00;0.44;226.64;;;;;22.80;1.00;;;;;;2270914;61;1118;-85
2021/08/27 09:55:21;452982.00;1.51;780.91;74331.00;0.25;129.24;;;;;23.00;1.00;;;;;;2270814;61;1424;-85
2021/08/27 09:57:50;220572.00;0.74;381.33;83682.00;0.28;145.40;;;;;23.20;1.00;;;;;;2269558;61;994;-85
2021/08/27 10:00:19;290757.00;0.97;502.03;68543.00;0.23;119.24;;;;;23.30;1.00;;;;;;2269624;61;1102;-86
2021/08/27 10:02:47;235082.00;0.78;406.29;70172.00;0.23;122.06;;;;;23.40;1.00;;;;;;2266294;61;1990;-87
2021/08/27 10:05:15;266794.00;0.89;460.83;73429.00;0.24;127.69;;;;;24.00;1.00;;;;;;2268715;61;1278;-85
2021/08/27 10:07:42;211657.00;0.71;365.99;67927.00;0.23;118.18;;;;;24.20;1.00;;;;;;2268892;61;1547;-85
2021/08/27 10:10:11;284444.00;0.95;491.18;76683.00;0.26;133.31;;;;;24.20;1.00;;;;;;2259749;61;1098;-86
2021/08/27 10:12:42;177421.00;0.59;307.05;75141.00;0.25;130.64;;;;;23.70;1.00;;;;;;2276843;61;1149;-87
2021/08/27 10:15:10;212511.00;0.71;367.46;73919.00;0.25;128.53;;;;;23.70;1.00;;;;;;2277386;61;1680;-86
2021/08/27 10:17:40;205243.00;0.68;354.95;69806.00;0.23;121.43;;;;;23.90;1.00;;;;;;2281180;61;1145;-85
2021/08/27 10:20:09;314914.00;1.05;543.56;86289.00;0.29;149.90;;;;;24.10;1.00;;;;;;2281619;61;1090;-87
2021/08/27 10:22:37;315198.00;1.05;544.04;55870.00;0.19;97.34;;;;;24.20;1.00;;;;;;2280997;61;1917;-86
2021/08/27 10:25:06;205588.00;0.69;355.54;77509.00;0.26;134.73;;;;;24.00;1.00;;;;;;2280496;61;1243;-85
2021/08/27 10:27:35;321696.00;1.07;555.21;51303.00;0.17;89.44;;;;;22.90;1.00;;;;;;2275809;61;1109;-85
2021/08/27 10:30:05;229790.00;0.77;397.19;79487.00;0.26;138.15;;;;;22.20;1.00;;;;;;2276285;61;1172;-85
2021/08/27 10:32:48;257031.00;0.86;444.04;74730.00;0.25;129.93;;;;;22.30;1.00;;;;;;2275848;61;1143;-86
2021/08/27 10:35:47;208502.00;0.70;360.56;69576.00;0.23;121.03;;;;;22.60;1.00;;;;;;2267708;61;1420;-85
2021/08/27 10:38:42;249774.00;0.83;431.56;76579.00;0.26;133.13;;;;;23.10;1.00;;;;;;2266926;61;1268;-86
2021/08/27 10:41:20;457665.00;1.53;788.97;80267.00;0.27;139.50;;;;;23.50;1.00;;;;;;2267269;61;1730;-85
2021/08/27 10:43:56;1076455.00;3.59;1868.37;68841.00;0.23;119.76;;;;;23.00;1.00;;;;;;2268514;61;2013;-85
2021/08/27 10:46:45;647230.00;2.16;1115.84;10719.00;0.04;19.19;;;;;22.30;1.00;;;;;;2276403;61;1138;-86
2021/08/27 10:49:14;729463.00;2.43;1258.37;14224.00;0.05;25.27;;;;;22.10;1.00;;;;;;2278708;61;1682;-85
2021/08/27 10:51:43;234703.00;0.78;405.64;67415.00;0.22;117.29;;;;;22.20;1.00;;;;;;2271247;61;1125;-85
2021/08/27 10:54:12;297956.00;0.99;514.41;73063.00;0.24;127.05;;;;;22.10;1.00;;;;;;2283618;60;1270;-86
2021/08/27 10:56:43;562993.00;1.88;970.36;121249.00;0.40;210.24;;;;;22.10;1.00;;;;;;2280705;61;1165;-85
2021/08/27 10:59:12;20531.00;0.07;36.19;0.00;0.00;0.62;;;;;22.00;1.00;;;;;;2278323;61;1159;-85
2021/08/27 11:01:42;100406.00;0.33;174.27;0.00;0.00;0.62;;;;;22.40;1.00;;;;;;2282127;61;2005;-86
2021/08/27 11:04:16;97111.00;0.32;168.58;0.00;0.00;0.62;;;;;22.20;1.00;;;;;;2281953;61;1366;-87
2021/08/27 11:06:54;128442.00;0.43;222.64;0.00;0.00;0.62;;;;;22.60;1.00;;;;;;2281859;61;1176;-86
2021/08/27 11:09:23;174037.00;0.58;301.22;0.00;0.00;0.62;;;;;22.90;1.00;;;;;;2282228;60;1247;-86
2021/08/27 11:12:18;99703.00;0.33;173.06;0.00;0.00;0.62;;;;;23.10;1.00;;;;;;2282654;61;1224;-86
2021/08/27 11:14:47;136638.00;0.46;236.77;0.00;0.00;0.62;;;;;22.10;1.00;;;;;;2279831;61;1269;-85
2021/08/27 11:17:15;84661.00;0.28;147.09;0.00;0.00;0.62;;;;;22.00;1.00;;;;;;2283852;60;1192;-86
2021/08/27 11:19:48;82357.00;0.27;143.11;0.00;0.00;0.62;;;;;22.00;1.00;;;;;;2285780;60;1568;-86
2021/08/27 11:22:27;277811.00;0.93;479.77;59989.00;0.20;104.46;;;;;22.20;1.00;;;;;;2286124;60;2028;-85
2021/08/27 11:25:17;66175.00;0.22;115.15;0.00;0.00;0.62;;;;;22.20;1.00;;;;;;2286657;60;1459;-85
2021/08/27 11:28:24;41442.00;0.14;72.38;0.00;0.00;0.62;;;;;22.40;1.00;;;;;;2286216;60;1125;-85
2021/08/27 11:31:03;268506.00;0.90;463.78;69745.00;0.23;121.32;;;;;22.40;1.00;;;;;;2287066;60;1196;-85
2021/08/27 11:33:53;86559.00;0.29;150.37;0.00;0.00;0.62;;;;;22.40;1.00;;;;;;2284808;60;1678;-84
2021/08/27 11:36:23;449407.00;1.50;774.76;78354.00;0.26;136.19;;;;;22.00;1.00;;;;;;2285420;60;1810;-84